createdAt,value
2023-01-07T00:01:33.249Z,2.49
2023-01-07T00:04:01.529Z,2.41
2023-01-07T00:06:31.070Z,2.58
2023-01-07T00:08:58.243Z,2.46
2023-01-07T00:11:36.732Z,2.49
2023-01-07T00:14:05.372Z,2.40
2023-01-07T00:16:33.627Z,2.53
2023-01-07T00:19:02.251Z,2.62
2023-01-07T00:21:30.326Z,2.62
2023-01-07T00:23:59.805Z,2.62
2023-01-07T00:26:29.532Z,2.55
2023-01-07T00:28:56.534Z,2.51
2023-01-07T00:31:28.479Z,2.50
2023-01-07T00:33:55.267Z,2.47
2023-01-07T00:36:23.548Z,2.43
2023-01-07T00:39:04.730Z,2.38
2023-01-07T00:41:31.406Z,2.26
2023-01-07T00:43:58.092Z,2.15
2023-01-07T00:46:24.794Z,2.27
2023-01-07T00:48:51.618Z,1.94
2023-01-07T00:51:19.366Z,2.04
2023-01-07T00:53:46.644Z,1.92
2023-01-07T00:56:14.974Z,1.96
2023-01-07T00:58:42.009Z,1.95
2023-01-07T01:01:10.691Z,1.89
2023-01-07T01:03:38.461Z,1.83
2023-01-07T01:06:08.102Z,1.56
2023-01-07T01:08:34.754Z,1.75
2023-01-07T01:11:06.079Z,1.75
2023-01-07T01:13:34.056Z,1.77
2023-01-07T01:16:01.384Z,1.69
2023-01-07T01:18:28.266Z,1.68
2023-01-07T01:20:55.102Z,1.74
2023-01-07T01:23:22.521Z,1.79
2023-01-07T01:25:49.290Z,1.78
2023-01-07T01:28:15.993Z,1.81
2023-01-07T01:30:42.847Z,1.85
2023-01-07T01:33:09.371Z,1.90
2023-01-07T01:35:40.062Z,1.90
2023-01-07T01:38:06.746Z,1.93
2023-01-07T01:40:33.562Z,1.92
2023-01-07T01:43:00.174Z,1.94
2023-01-07T01:45:27.007Z,1.85
2023-01-07T01:47:59.545Z,1.86
2023-01-07T01:50:32.010Z,1.90
2023-01-07T01:53:10.831Z,1.94
2023-01-07T01:55:43.556Z,1.85
2023-01-07T01:58:14.827Z,1.89
2023-01-07T02:00:42.772Z,1.67
2023-01-07T02:03:13.715Z,1.88
2023-01-07T02:05:42.079Z,1.38
2023-01-07T02:08:09.681Z,1.82
2023-01-07T02:10:37.711Z,1.84
2023-01-07T02:13:31.166Z,1.87
2023-01-07T02:16:05.436Z,1.83
2023-01-07T02:18:44.216Z,1.80
2023-01-07T02:21:17.871Z,1.85
2023-01-07T02:24:02.560Z,1.80
2023-01-07T02:27:05.127Z,1.81
2023-01-07T02:30:02.713Z,1.81
2023-01-07T02:32:55.717Z,1.79
2023-01-07T02:35:45.415Z,1.70
2023-01-07T02:38:27.106Z,1.60
2023-01-07T02:41:17.824Z,1.28
2023-01-07T02:43:59.855Z,1.20
2023-01-07T02:46:47.426Z,1.10
2023-01-07T02:49:17.048Z,1.06
2023-01-07T02:51:44.033Z,0.76
2023-01-07T02:54:15.254Z,0.87
2023-01-07T02:56:53.875Z,0.94
2023-01-07T02:59:45.193Z,1.05
2023-01-07T03:02:27.029Z,1.02
2023-01-07T03:05:12.267Z,0.78
2023-01-07T03:08:01.194Z,0.78
2023-01-07T03:10:42.739Z,0.79
2023-01-07T03:13:18.310Z,0.59
2023-01-07T03:16:23.963Z,0.48
2023-01-07T03:19:01.764Z,0.41
2023-01-07T03:21:31.514Z,0.28
2023-01-07T03:23:59.069Z,0.31
2023-01-07T03:26:31.763Z,0.31
2023-01-07T03:29:00.795Z,0.34
2023-01-07T03:31:29.718Z,0.30
2023-01-07T03:34:09.844Z,0.49
2023-01-07T03:36:42.391Z,0.51
2023-01-07T03:39:12.313Z,0.47
2023-01-07T03:41:58.139Z,0.54
2023-01-07T03:44:25.177Z,0.47
2023-01-07T03:46:53.147Z,0.50
2023-01-07T03:49:20.159Z,0.63
2023-01-07T03:51:49.484Z,0.69
2023-01-07T03:54:16.234Z,0.76
2023-01-07T03:56:42.852Z,0.76
2023-01-07T03:59:09.557Z,0.84
2023-01-07T04:01:36.264Z,0.84
2023-01-07T04:04:03.683Z,0.90
2023-01-07T04:06:30.691Z,0.93
2023-01-07T04:08:57.576Z,0.79
2023-01-07T04:11:24.411Z,0.95
2023-01-07T04:13:51.201Z,1.03
2023-01-07T04:16:17.922Z,1.01
2023-01-07T04:18:44.685Z,1.21
2023-01-07T04:21:11.298Z,1.24
2023-01-07T04:23:37.914Z,1.25
2023-01-07T04:26:04.893Z,1.35
2023-01-07T04:28:31.509Z,1.22
2023-01-07T04:31:01.316Z,1.00
2023-01-07T04:33:28.190Z,0.98
2023-01-07T04:35:54.934Z,0.96
2023-01-07T04:38:21.522Z,0.95
2023-01-07T04:40:48.240Z,0.96
2023-01-07T04:43:15.076Z,0.95
2023-01-07T04:45:42.016Z,0.89
2023-01-07T04:48:08.643Z,0.96
2023-01-07T04:50:35.289Z,0.83
2023-01-07T04:53:01.961Z,0.69
2023-01-07T04:55:28.598Z,0.82
2023-01-07T04:57:55.184Z,0.89
2023-01-07T05:00:22.079Z,0.90
2023-01-07T05:02:48.711Z,0.75
2023-01-07T05:05:15.368Z,0.68
2023-01-07T05:07:42.001Z,0.39
2023-01-07T05:10:09.074Z,0.51
2023-01-07T05:12:36.331Z,0.56
2023-01-07T05:15:07.129Z,0.53
2023-01-07T05:17:33.774Z,0.54
2023-01-07T05:20:00.419Z,0.44
2023-01-07T05:22:27.129Z,0.35
2023-01-07T05:24:53.849Z,0.31
2023-01-07T05:27:20.480Z,0.15
2023-01-07T05:29:47.147Z,0.14
2023-01-07T05:32:13.778Z,0.01
2023-01-07T05:34:40.408Z,-0.08
2023-01-07T05:37:07.040Z,-0.13
2023-01-07T05:39:34.010Z,-0.16
2023-01-07T05:42:00.772Z,-0.35
2023-01-07T05:44:27.513Z,-0.53
2023-01-07T05:46:54.126Z,-0.45
2023-01-07T05:49:20.741Z,-0.39
2023-01-07T05:51:47.390Z,-0.45
2023-01-07T05:54:13.998Z,-0.48
2023-01-07T05:56:40.650Z,-0.53
2023-01-07T05:59:07.213Z,-0.60
2023-01-07T06:01:34.112Z,-0.41
2023-01-07T06:04:00.800Z,-0.37
2023-01-07T06:06:27.480Z,-0.24
2023-01-07T06:08:54.078Z,-0.09
2023-01-07T06:11:20.834Z,0.10
2023-01-07T06:13:47.661Z,0.27
2023-01-07T06:16:14.448Z,0.67
2023-01-07T06:18:41.132Z,1.19
2023-01-07T06:21:07.724Z,1.98
2023-01-07T06:23:34.532Z,2.57
2023-01-07T06:26:01.158Z,3.16
2023-01-07T06:28:27.772Z,3.64
2023-01-07T06:30:54.545Z,3.51
2023-01-07T06:33:21.338Z,3.32
2023-01-07T06:35:48.225Z,3.00
2023-01-07T06:38:15.099Z,2.77
2023-01-07T06:40:41.802Z,2.55
2023-01-07T06:43:08.475Z,2.33
2023-01-07T06:45:35.269Z,2.13
2023-01-07T06:48:02.516Z,2.01
2023-01-07T06:50:29.496Z,1.86
2023-01-07T06:52:56.987Z,1.70
2023-01-07T06:55:23.857Z,1.73
2023-01-07T06:57:50.690Z,1.67
2023-01-07T07:00:17.564Z,1.59
2023-01-07T07:02:44.410Z,1.40
2023-01-07T07:05:11.784Z,1.45
2023-01-07T07:07:38.571Z,1.46
2023-01-07T07:10:07.626Z,1.45
2023-01-07T07:12:35.792Z,1.33
2023-01-07T07:15:02.408Z,1.25
2023-01-07T07:17:28.991Z,1.14
2023-01-07T07:19:55.661Z,1.04
2023-01-07T07:22:22.336Z,1.33
2023-01-07T07:24:49.061Z,1.50
2023-01-07T07:27:15.695Z,1.63
2023-01-07T07:29:42.397Z,1.92
2023-01-07T07:32:09.338Z,2.11
2023-01-07T07:34:36.750Z,2.54
2023-01-07T07:37:03.385Z,2.81
2023-01-07T07:39:30.045Z,2.97
2023-01-07T07:41:56.694Z,3.03
2023-01-07T07:44:23.436Z,3.21
2023-01-07T07:46:50.128Z,3.39
2023-01-07T07:49:18.831Z,3.56
2023-01-07T07:51:45.485Z,3.51
2023-01-07T07:54:12.197Z,3.77
2023-01-07T07:56:38.862Z,3.89
2023-01-07T07:59:05.608Z,3.83
2023-01-07T08:01:32.376Z,3.56
2023-01-07T08:03:59.113Z,3.62
2023-01-07T08:06:25.719Z,3.58
2023-01-07T08:08:52.340Z,3.63
2023-01-07T08:11:18.982Z,3.55
2023-01-07T08:13:45.639Z,3.82
2023-01-07T08:16:12.280Z,4.09
2023-01-07T08:18:40.024Z,3.76
2023-01-07T08:21:06.862Z,3.94
2023-01-07T08:23:34.827Z,4.15
2023-01-07T08:26:03.081Z,4.17
2023-01-07T08:28:31.320Z,4.13
2023-01-07T08:31:02.431Z,4.64
2023-01-07T08:33:29.303Z,4.73
2023-01-07T08:35:55.989Z,4.76
2023-01-07T08:38:22.753Z,5.08
2023-01-07T08:40:51.459Z,5.25
2023-01-07T08:43:18.286Z,5.45
2023-01-07T08:45:48.794Z,5.45
2023-01-07T08:48:15.451Z,5.46
2023-01-07T08:50:42.575Z,5.42
2023-01-07T08:53:09.307Z,5.36
2023-01-07T08:55:35.999Z,5.16
2023-01-07T08:58:02.604Z,5.34
2023-01-07T09:00:29.348Z,5.29
2023-01-07T09:02:56.102Z,5.45
2023-01-07T09:05:24.569Z,5.30
2023-01-07T09:07:54.853Z,5.60
2023-01-07T09:10:21.791Z,5.81
2023-01-07T09:12:48.542Z,6.01
2023-01-07T09:15:15.267Z,6.09
2023-01-07T09:17:41.936Z,6.42
2023-01-07T09:20:09.579Z,6.45
2023-01-07T09:22:37.201Z,6.18
2023-01-07T09:25:05.864Z,6.57
2023-01-07T09:27:33.055Z,6.70
2023-01-07T09:29:59.878Z,6.73
2023-01-07T09:32:27.581Z,7.00
2023-01-07T09:34:55.606Z,7.02
2023-01-07T09:37:23.165Z,7.04
2023-01-07T09:39:49.886Z,7.26
2023-01-07T09:42:38.399Z,7.47
2023-01-07T09:45:17.050Z,7.42
2023-01-07T09:47:47.871Z,7.47
2023-01-07T09:50:17.394Z,7.75
2023-01-07T09:52:48.634Z,7.83
2023-01-07T09:55:21.047Z,7.88
2023-01-07T09:57:48.079Z,8.14
2023-01-07T10:00:21.063Z,8.07
2023-01-07T10:03:12.172Z,8.20
2023-01-07T10:05:46.754Z,8.23
2023-01-07T10:08:29.197Z,8.39
2023-01-07T10:11:07.804Z,8.54
2023-01-07T10:14:25.920Z,8.71
2023-01-07T10:17:03.144Z,8.93
2023-01-07T10:19:52.255Z,9.07
2023-01-07T10:22:25.607Z,9.25
2023-01-07T10:24:57.562Z,9.24
2023-01-07T10:27:34.536Z,9.51
2023-01-07T10:30:04.370Z,9.66
2023-01-07T10:32:34.076Z,9.79
2023-01-07T10:35:01.685Z,9.62
2023-01-07T10:37:34.266Z,9.68
2023-01-07T10:40:32.187Z,9.76
2023-01-07T10:43:17.390Z,9.82
2023-01-07T10:45:56.640Z,9.99
2023-01-07T10:49:07.768Z,10.12
2023-01-07T10:51:40.216Z,9.99
2023-01-07T10:54:34.559Z,10.34
2023-01-07T10:57:08.098Z,10.41
2023-01-07T10:59:36.112Z,10.58
2023-01-07T11:02:03.875Z,10.68
2023-01-07T11:04:30.667Z,10.62
2023-01-07T11:07:04.315Z,10.55
2023-01-07T11:09:35.413Z,10.51
2023-01-07T11:12:27.463Z,10.45
2023-01-07T11:14:57.092Z,10.53
2023-01-07T11:17:53.229Z,10.57
2023-01-07T11:21:04.793Z,10.65
2023-01-07T11:23:32.962Z,10.78
2023-01-07T11:26:23.075Z,10.97
2023-01-07T11:28:53.348Z,10.99
2023-01-07T11:31:23.084Z,10.83
2023-01-07T11:34:02.337Z,10.88
2023-01-07T11:36:43.017Z,10.88
2023-01-07T11:39:18.121Z,11.03
2023-01-07T11:41:53.679Z,10.90
2023-01-07T11:44:20.568Z,10.95
2023-01-07T11:46:47.306Z,11.30
2023-01-07T11:49:43.673Z,11.31
2023-01-07T11:52:19.532Z,11.11
2023-01-07T11:54:53.421Z,11.72
2023-01-07T11:57:25.647Z,11.66
2023-01-07T12:00:05.787Z,11.17
2023-01-07T12:02:32.427Z,11.11
2023-01-07T12:05:30.160Z,11.19
2023-01-07T12:07:59.176Z,11.15
2023-01-07T12:10:34.164Z,11.22
2023-01-07T12:13:03.332Z,11.18
2023-01-07T12:15:50.026Z,11.13
2023-01-07T12:18:39.688Z,11.41
2023-01-07T12:21:28.979Z,11.39
2023-01-07T12:24:16.907Z,11.49
2023-01-07T12:27:06.921Z,11.50
2023-01-07T12:29:57.507Z,11.10
2023-01-07T12:32:38.983Z,11.52
2023-01-07T12:35:26.186Z,11.44
2023-01-07T12:37:58.892Z,11.53
2023-01-07T12:40:53.821Z,11.47
2023-01-07T12:43:37.709Z,11.54
2023-01-07T12:46:12.742Z,11.28
2023-01-07T12:48:54.708Z,12.01
2023-01-07T12:51:45.664Z,12.18
2023-01-07T12:54:25.604Z,12.14
2023-01-07T12:57:11.246Z,12.00
2023-01-07T12:59:46.256Z,12.11
2023-01-07T13:02:32.401Z,12.31
2023-01-07T13:05:14.650Z,12.39
2023-01-07T13:08:25.831Z,12.25
2023-01-07T13:11:03.706Z,11.94
2023-01-07T13:13:37.746Z,11.97
2023-01-07T13:16:05.696Z,12.26
2023-01-07T13:18:32.384Z,12.35
2023-01-07T13:21:01.631Z,12.48
2023-01-07T13:23:49.245Z,12.65
2023-01-07T13:26:19.660Z,12.63
2023-01-07T13:28:52.127Z,12.75
2023-01-07T13:31:51.058Z,12.78
2023-01-07T13:34:32.676Z,12.85
2023-01-07T13:37:26.531Z,12.75
2023-01-07T13:40:08.283Z,12.73
2023-01-07T13:42:50.453Z,12.82
2023-01-07T13:45:22.077Z,12.91
2023-01-07T13:47:52.482Z,12.97
2023-01-07T13:50:22.141Z,12.92
2023-01-07T13:53:03.937Z,12.80
2023-01-07T13:55:33.027Z,12.87
2023-01-07T13:57:59.871Z,12.85
2023-01-07T14:01:09.535Z,13.09
2023-01-07T14:03:45.187Z,13.03
2023-01-07T14:06:20.888Z,13.08
2023-01-07T14:09:13.772Z,12.99
2023-01-07T14:11:49.346Z,12.92
2023-01-07T14:14:35.559Z,12.85
2023-01-07T14:17:26.979Z,12.88
2023-01-07T14:20:01.985Z,12.94
2023-01-07T14:22:46.699Z,12.97
2023-01-07T14:25:47.348Z,12.95
2023-01-07T14:28:39.444Z,12.82
2023-01-07T14:31:18.994Z,12.63
2023-01-07T14:33:58.190Z,12.67
2023-01-07T14:37:16.867Z,12.38
2023-01-07T14:39:45.541Z,11.93
2023-01-07T14:42:21.013Z,11.81
2023-01-07T14:44:50.064Z,11.49
2023-01-07T14:47:52.570Z,11.47
2023-01-07T14:50:40.792Z,10.99
2023-01-07T14:53:16.577Z,10.89
2023-01-07T14:55:46.151Z,10.88
2023-01-07T14:58:25.865Z,10.73
2023-01-07T15:01:11.000Z,10.68
2023-01-07T15:03:53.464Z,10.53
2023-01-07T15:06:26.147Z,10.41
2023-01-07T15:09:27.661Z,10.25
2023-01-07T15:12:15.541Z,10.00
2023-01-07T15:15:08.371Z,9.89
2023-01-07T15:17:39.376Z,9.72
2023-01-07T15:20:06.965Z,9.72
2023-01-07T15:22:47.647Z,9.50
2023-01-07T15:25:49.542Z,9.07
2023-01-07T15:28:25.851Z,8.74
2023-01-07T15:31:17.652Z,8.70
2023-01-07T15:33:51.206Z,8.71
2023-01-07T15:36:18.067Z,8.71
2023-01-07T15:38:54.305Z,8.60
2023-01-07T15:41:26.977Z,8.55
2023-01-07T15:43:54.394Z,8.25
2023-01-07T15:46:23.049Z,8.25
2023-01-07T15:49:08.430Z,8.24
2023-01-07T15:51:40.513Z,8.23
2023-01-07T15:54:24.170Z,8.02
2023-01-07T15:56:54.220Z,7.73
2023-01-07T15:59:33.233Z,7.51
2023-01-07T16:02:13.104Z,7.44
2023-01-07T16:04:42.001Z,7.38
2023-01-07T16:07:23.479Z,7.09
2023-01-07T16:09:51.254Z,7.09
2023-01-07T16:12:25.285Z,7.19
2023-01-07T16:14:51.902Z,7.04
2023-01-07T16:17:19.701Z,7.03
2023-01-07T16:19:46.512Z,7.09
2023-01-07T16:22:17.823Z,7.03
2023-01-07T16:24:53.133Z,6.84
2023-01-07T16:27:28.746Z,6.85
2023-01-07T16:29:58.346Z,6.95
2023-01-07T16:32:26.658Z,6.86
2023-01-07T16:34:58.304Z,6.92
2023-01-07T16:37:25.551Z,6.77
2023-01-07T16:39:53.551Z,6.66
2023-01-07T16:42:25.093Z,6.55
2023-01-07T16:44:54.743Z,6.66
2023-01-07T16:47:27.332Z,6.52
2023-01-07T16:50:00.964Z,5.67
2023-01-07T16:52:33.612Z,5.66
2023-01-07T16:55:00.419Z,5.50
2023-01-07T16:57:33.743Z,5.73
2023-01-07T17:00:04.226Z,5.58
2023-01-07T17:02:48.562Z,5.57
2023-01-07T17:05:22.596Z,5.50
2023-01-07T17:08:02.419Z,5.48
2023-01-07T17:10:35.072Z,5.56
2023-01-07T17:13:24.595Z,5.54
2023-01-07T17:15:51.497Z,5.45
2023-01-07T17:18:17.997Z,5.56
2023-01-07T17:20:44.661Z,5.53
2023-01-07T17:23:42.030Z,5.54
2023-01-07T17:26:11.394Z,5.45
2023-01-07T17:28:46.157Z,4.90
2023-01-07T17:31:12.895Z,5.09
2023-01-07T17:33:40.061Z,5.16
2023-01-07T17:36:12.253Z,5.15
2023-01-07T17:38:38.826Z,5.19
2023-01-07T17:41:08.924Z,5.19
2023-01-07T17:43:37.609Z,5.06
2023-01-07T17:46:14.727Z,5.07
2023-01-07T17:48:41.427Z,5.03
2023-01-07T17:51:11.511Z,4.99
2023-01-07T17:53:44.588Z,4.94
2023-01-07T17:56:11.357Z,4.87
2023-01-07T17:58:38.539Z,4.85
2023-01-07T18:01:10.552Z,4.82
2023-01-07T18:03:37.443Z,4.64
2023-01-07T18:06:12.036Z,4.73
2023-01-07T18:08:38.699Z,4.69
2023-01-07T18:11:23.839Z,4.69
2023-01-07T18:13:50.501Z,4.64
2023-01-07T18:16:17.125Z,4.43
2023-01-07T18:18:43.892Z,4.49
2023-01-07T18:21:11.860Z,4.51
2023-01-07T18:23:38.673Z,4.50
2023-01-07T18:26:06.396Z,4.40
2023-01-07T18:28:33.269Z,4.45
2023-01-07T18:30:59.934Z,4.27
2023-01-07T18:33:26.574Z,4.45
2023-01-07T18:35:53.617Z,4.37
2023-01-07T18:38:20.468Z,4.39
2023-01-07T18:40:47.072Z,4.33
2023-01-07T18:43:15.718Z,4.40
2023-01-07T18:45:44.040Z,4.31
2023-01-07T18:48:12.466Z,4.21
2023-01-07T18:50:43.418Z,4.07
2023-01-07T18:53:10.409Z,4.10
2023-01-07T18:55:38.690Z,3.98
2023-01-07T18:58:06.268Z,4.11
2023-01-07T19:00:32.929Z,4.00
2023-01-07T19:02:59.855Z,3.91
2023-01-07T19:05:28.074Z,3.92
2023-01-07T19:07:55.563Z,3.85
2023-01-07T19:10:23.903Z,3.92
2023-01-07T19:12:50.663Z,3.93
2023-01-07T19:15:17.931Z,3.86
2023-01-07T19:17:44.784Z,3.72
2023-01-07T19:20:12.616Z,3.54
2023-01-07T19:22:39.298Z,3.52
2023-01-07T19:25:06.489Z,3.25
2023-01-07T19:27:33.378Z,3.25
2023-01-07T19:29:59.974Z,3.09
2023-01-07T19:32:26.550Z,3.02
2023-01-07T19:34:53.225Z,3.17
2023-01-07T19:37:20.015Z,2.97
2023-01-07T19:39:46.672Z,2.78
2023-01-07T19:42:13.363Z,2.94
2023-01-07T19:44:41.665Z,2.91
2023-01-07T19:47:08.381Z,2.99
2023-01-07T19:49:36.091Z,2.97
2023-01-07T19:52:02.838Z,3.03
2023-01-07T19:54:29.483Z,3.06
2023-01-07T19:56:56.171Z,2.92
2023-01-07T19:59:23.013Z,2.85
2023-01-07T20:01:50.168Z,2.46
2023-01-07T20:04:17.088Z,2.54
2023-01-07T20:06:44.812Z,2.57
2023-01-07T20:09:11.694Z,2.28
2023-01-07T20:11:43.101Z,2.18
2023-01-07T20:14:10.683Z,2.43
2023-01-07T20:16:39.548Z,2.36
2023-01-07T20:19:06.399Z,2.09
2023-01-07T20:21:33.575Z,2.21
2023-01-07T20:24:00.480Z,2.32
2023-01-07T20:26:29.488Z,2.33
2023-01-07T20:28:57.653Z,2.21
2023-01-07T20:31:25.752Z,2.21
2023-01-07T20:33:55.502Z,2.13
2023-01-07T20:36:24.954Z,2.05
2023-01-07T20:38:51.906Z,1.91
2023-01-07T20:41:24.686Z,1.91
2023-01-07T20:43:53.927Z,1.64
2023-01-07T20:46:21.523Z,1.80
2023-01-07T20:48:48.697Z,1.61
2023-01-07T20:51:15.927Z,1.99
2023-01-07T20:53:43.203Z,2.07
2023-01-07T20:56:10.335Z,2.14
2023-01-07T20:58:38.214Z,1.82
2023-01-07T21:01:07.691Z,1.93
2023-01-07T21:03:35.674Z,2.10
2023-01-07T21:06:02.523Z,2.10
2023-01-07T21:08:29.232Z,1.93
2023-01-07T21:10:55.916Z,2.17
2023-01-07T21:13:23.353Z,1.97
2023-01-07T21:15:50.716Z,1.91
2023-01-07T21:18:17.882Z,1.90
2023-01-07T21:20:44.990Z,1.90
2023-01-07T21:23:12.240Z,2.02
2023-01-07T21:25:38.991Z,1.94
2023-01-07T21:28:06.759Z,1.91
2023-01-07T21:30:33.895Z,1.92
2023-01-07T21:33:00.659Z,1.79
2023-01-07T21:35:27.328Z,1.93
2023-01-07T21:37:55.058Z,1.89
2023-01-07T21:40:22.579Z,1.90
2023-01-07T21:42:49.270Z,1.86
2023-01-07T21:45:16.186Z,1.81
2023-01-07T21:47:42.823Z,1.78
2023-01-07T21:50:10.046Z,1.82
2023-01-07T21:52:37.234Z,1.90
2023-01-07T21:55:04.718Z,2.00
2023-01-07T21:57:31.367Z,1.97
2023-01-07T21:59:58.062Z,1.96
2023-01-07T22:02:24.702Z,1.99
2023-01-07T22:04:51.437Z,1.67
2023-01-07T22:07:19.903Z,1.92
2023-01-07T22:09:47.041Z,2.02
2023-01-07T22:12:14.922Z,1.98
2023-01-07T22:14:41.593Z,1.64
2023-01-07T22:17:09.604Z,1.67
2023-01-07T22:19:36.412Z,1.49
2023-01-07T22:22:03.191Z,1.55
2023-01-07T22:24:29.887Z,1.21
2023-01-07T22:26:57.443Z,1.35
2023-01-07T22:29:24.651Z,1.32
2023-01-07T22:31:52.864Z,1.35
2023-01-07T22:34:20.114Z,1.24
2023-01-07T22:37:01.655Z,1.30
2023-01-07T22:39:42.641Z,1.09
2023-01-07T22:42:14.655Z,1.02
2023-01-07T22:44:46.829Z,0.93
2023-01-07T22:47:15.114Z,0.91
2023-01-07T22:49:42.143Z,0.64
2023-01-07T22:52:09.130Z,0.63
2023-01-07T22:54:36.295Z,0.64
2023-01-07T22:57:08.862Z,0.53
2023-01-07T22:59:35.827Z,0.75
2023-01-07T23:02:02.704Z,0.50
2023-01-07T23:04:29.604Z,0.70
2023-01-07T23:06:56.297Z,0.53
2023-01-07T23:09:22.859Z,0.74
2023-01-07T23:11:50.656Z,0.79
2023-01-07T23:14:20.163Z,0.61
2023-01-07T23:16:47.526Z,0.47
2023-01-07T23:19:14.846Z,0.39
2023-01-07T23:21:47.025Z,0.33
2023-01-07T23:24:14.495Z,0.35
2023-01-07T23:26:42.072Z,0.35
2023-01-07T23:29:09.016Z,0.39
2023-01-07T23:31:36.953Z,0.42
2023-01-07T23:34:03.976Z,0.54
2023-01-07T23:36:30.976Z,0.43
2023-01-07T23:38:57.827Z,0.55
2023-01-07T23:41:24.516Z,0.69
2023-01-07T23:43:51.278Z,0.63
2023-01-07T23:46:17.991Z,0.56
2023-01-07T23:48:44.589Z,0.35
2023-01-07T23:51:16.242Z,0.51
2023-01-07T23:53:43.932Z,0.38
2023-01-07T23:56:10.745Z,0.44
2023-01-07T23:58:38.185Z,0.30
